Time;durP1;ratioP1;P1;durP2;ratioP2;P2;SDS_P1;SDS_P2;PMS_P1;PMS_P2;Temp;Humidity;BMP_temperature;BMP_pressure;BME280_temperature;BME280_humidity;BME280_pressure;Samples;Min_cycle;Max_cycle;Signal;HPM_P1;HPM_P2
2022/03/30 00:01:01;;;;;;;16.20;9.40;;;7.60;62.50;;;;;;6340888;22;20296;-78
2022/03/30 00:03:27;;;;;;;18.33;9.25;;;7.50;62.40;;;;;;6339909;22;20021;-78
2022/03/30 00:05:53;;;;;;;17.10;9.15;;;7.60;62.40;;;;;;6313170;22;20467;-79
2022/03/30 00:08:19;;;;;;;15.48;8.77;;;7.60;62.30;;;;;;6312969;22;20022;-78
2022/03/30 00:10:44;;;;;;;19.73;8.77;;;7.70;62.30;;;;;;6340865;22;20026;-78
2022/03/30 00:13:10;;;;;;;17.58;9.50;;;7.60;62.20;;;;;;6313183;22;20022;-78
2022/03/30 00:15:36;;;;;;;16.50;8.35;;;7.50;62.00;;;;;;6340598;22;20134;-77
2022/03/30 00:18:01;;;;;;;15.20;8.38;;;7.60;62.00;;;;;;6340456;22;20086;-78
2022/03/30 00:20:27;;;;;;;18.00;9.00;;;7.60;62.00;;;;;;6341030;22;20010;-78
2022/03/30 00:22:53;;;;;;;15.02;8.45;;;7.50;61.90;;;;;;6340745;22;20048;-78
2022/03/30 00:25:20;;;;;;;15.52;7.93;;;7.50;61.80;;;;;;6340904;22;20014;-78
2022/03/30 00:27:46;;;;;;;17.95;9.00;;;7.50;61.80;;;;;;6340623;22;20335;-78
2022/03/30 00:30:14;;;;;;;15.73;8.80;;;7.50;61.80;;;;;;6340972;22;20364;-78
2022/03/30 00:32:41;;;;;;;15.73;9.13;;;7.50;61.80;;;;;;6313070;22;20080;-77
2022/03/30 00:35:07;;;;;;;15.50;9.57;;;8.00;62.00;;;;;;6340564;22;20014;-77
2022/03/30 00:37:34;;;;;;;13.68;8.07;;;7.50;61.70;;;;;;6313054;22;20026;-78
2022/03/30 00:40:00;;;;;;;11.50;8.13;;;7.50;61.70;;;;;;6340944;22;20009;-78
2022/03/30 00:42:26;;;;;;;14.18;8.10;;;7.50;61.60;;;;;;6312916;22;20085;-78
2022/03/30 00:44:53;;;;;;;12.75;8.30;;;7.40;61.60;;;;;;6340289;22;20034;-78
2022/03/30 00:47:21;;;;;;;14.05;8.18;;;7.50;62.10;;;;;;6340513;22;20017;-78
2022/03/30 00:49:48;;;;;;;15.68;7.85;;;7.40;61.60;;;;;;6313067;22;20326;-78
2022/03/30 00:52:14;;;;;;;15.23;8.25;;;7.40;61.60;;;;;;6339805;22;20015;-78
2022/03/30 00:54:45;;;;;;;13.02;8.32;;;7.40;61.60;;;;;;6340461;22;20022;-77
2022/03/30 00:57:14;;;;;;;14.98;8.82;;;7.40;61.60;;;;;;6340057;22;20360;-78
2022/03/30 00:59:41;;;;;;;16.48;9.57;;;7.70;61.80;;;;;;6340526;22;20014;-77
2022/03/30 01:02:07;;;;;;;20.73;12.07;;;7.30;61.60;;;;;;6340559;22;20018;-78
2022/03/30 01:04:33;;;;;;;15.88;9.52;;;7.30;61.60;;;;;;6340775;22;20015;-78
2022/03/30 01:06:59;;;;;;;19.52;10.40;;;7.30;61.70;;;;;;6312400;22;20089;-77
2022/03/30 01:09:26;;;;;;;18.58;9.93;;;7.30;61.70;;;;;;6340075;22;20011;-77
2022/03/30 01:11:55;;;;;;;18.05;10.48;;;7.30;61.80;;;;;;6340282;22;20014;-78
2022/03/30 01:14:22;;;;;;;14.85;9.60;;;7.80;62.20;;;;;;6340390;22;20365;-76
2022/03/30 01:16:48;;;;;;;17.70;9.90;;;7.20;61.90;;;;;;6338577;22;20023;-77
2022/03/30 01:19:14;;;;;;;19.35;9.30;;;7.20;61.90;;;;;;6340225;22;20017;-77
2022/03/30 01:21:41;;;;;;;18.48;9.93;;;7.20;62.00;;;;;;6312423;22;20027;-77
2022/03/30 01:24:09;;;;;;;18.20;10.68;;;7.20;62.00;;;;;;6340353;22;20318;-78
2022/03/30 01:26:35;;;;;;;13.15;8.98;;;7.20;62.10;;;;;;6339711;22;20019;-77
2022/03/30 01:32:24;;;;;;;19.90;10.52;;;7.20;62.10;;;;;;6339842;22;20094;-77
2022/03/30 01:34:37;;;;;;;19.73;9.95;;;7.30;62.30;;;;;;6312040;22;20054;-78
2022/03/30 01:37:05;;;;;;;17.67;9.60;;;7.10;62.20;;;;;;6340071;22;20023;-77
2022/03/30 01:39:31;;;;;;;19.70;11.23;;;7.10;62.20;;;;;;6312450;22;20007;-77
2022/03/30 01:41:56;;;;;;;15.80;10.38;;;7.10;62.20;;;;;;6339474;22;20356;-77
2022/03/30 01:44:22;;;;;;;16.95;9.85;;;7.10;62.20;;;;;;6340133;22;20063;-77
2022/03/30 01:46:48;;;;;;;15.40;9.68;;;7.30;62.30;;;;;;6339683;22;20021;-78
2022/03/30 01:49:14;;;;;;;14.75;9.00;;;7.10;62.20;;;;;;6340067;22;20019;-77
2022/03/30 01:51:39;;;;;;;18.83;9.82;;;7.60;62.50;;;;;;6339444;22;20323;-77
2022/03/30 01:54:05;;;;;;;15.35;9.85;;;7.10;62.10;;;;;;6340115;22;20021;-77
2022/03/30 01:56:31;;;;;;;15.60;9.25;;;7.10;62.00;;;;;;6339293;22;20085;-77
2022/03/30 01:58:56;;;;;;;18.77;10.88;;;7.10;62.00;;;;;;6340019;22;20010;-77
2022/03/30 02:01:22;;;;;;;14.05;8.85;;;7.00;61.90;;;;;;6339886;22;20319;-78
2022/03/30 02:03:48;;;;;;;19.20;9.07;;;7.30;62.10;;;;;;6339816;22;20083;-77
2022/03/30 02:06:15;;;;;;;15.95;9.02;;;7.00;62.10;;;;;;6340263;22;20006;-77
2022/03/30 02:08:41;;;;;;;13.55;8.93;;;7.00;62.10;;;;;;6339731;22;20056;-76
2022/03/30 02:11:07;;;;;;;18.23;9.82;;;7.00;62.10;;;;;;6311732;22;20022;-77
2022/03/30 02:13:33;;;;;;;15.70;9.27;;;7.00;62.10;;;;;;6339351;22;20094;-77
2022/03/30 02:15:59;;;;;;;19.52;9.48;;;7.00;62.10;;;;;;6339656;22;20018;-77
2022/03/30 02:18:25;;;;;;;15.20;9.10;;;7.00;62.20;;;;;;6340066;22;20011;-78
2022/03/30 02:20:50;;;;;;;16.42;8.70;;;7.00;62.30;;;;;;6339544;22;20030;-77
2022/03/30 02:23:16;;;;;;;16.60;9.18;;;7.00;62.30;;;;;;6311671;22;20325;-76
2022/03/30 02:25:42;;;;;;;14.25;9.18;;;6.90;62.30;;;;;;6339617;22;20011;-77
2022/03/30 02:28:07;;;;;;;14.25;7.85;;;6.90;62.50;;;;;;6339833;22;20011;-77
2022/03/30 02:30:33;;;;;;;15.88;8.90;;;6.90;62.50;;;;;;6339843;22;20014;-77
2022/03/30 02:33:00;;;;;;;16.50;9.70;;;6.90;62.60;;;;;;6311775;22;20093;-77
2022/03/30 02:35:26;;;;;;;14.23;8.82;;;6.90;62.70;;;;;;6339279;22;20059;-77
2022/03/30 02:37:55;;;;;;;14.65;9.32;;;7.00;62.80;;;;;;6311931;22;20011;-77
2022/03/30 02:40:21;;;;;;;16.77;9.90;;;7.00;63.30;;;;;;6339240;22;20015;-77
2022/03/30 02:42:47;;;;;;;15.13;8.73;;;7.00;62.90;;;;;;6339476;22;20011;-77
2022/03/30 02:45:12;;;;;;;13.82;8.98;;;7.00;63.00;;;;;;6311428;22;20014;-77
2022/03/30 02:50:22;;;;;;;17.20;9.20;;;7.30;63.30;;;;;;6339804;22;20022;-78
2022/03/30 02:52:48;;;;;;;15.27;8.60;;;7.00;63.10;;;;;;6339374;22;20402;-77
2022/03/30 02:55:13;;;;;;;17.42;10.02;;;7.00;63.20;;;;;;6339280;22;20129;-77
2022/03/30 02:57:40;;;;;;;16.13;9.75;;;7.00;63.60;;;;;;6311112;22;20019;-77
2022/03/30 03:00:07;;;;;;;17.05;10.48;;;7.00;63.30;;;;;;6311349;22;20026;-77
2022/03/30 03:02:34;;;;;;;14.48;9.73;;;7.00;63.40;;;;;;6339094;22;20015;-77
2022/03/30 03:05:01;;;;;;;16.38;9.30;;;7.10;63.50;;;;;;6339466;22;20014;-78
2022/03/30 03:07:27;;;;;;;19.40;9.93;;;7.40;63.60;;;;;;6338688;22;20040;-77
2022/03/30 03:09:53;;;;;;;16.58;9.85;;;7.10;63.50;;;;;;6339624;22;20015;-77
2022/03/30 03:12:19;;;;;;;16.80;10.07;;;7.10;63.50;;;;;;6339518;22;20133;-77
2022/03/30 03:14:45;;;;;;;18.40;11.02;;;7.10;63.50;;;;;;6339364;22;20068;-77
2022/03/30 03:17:11;;;;;;;17.98;11.65;;;7.10;63.60;;;;;;6338743;22;20019;-77
2022/03/30 03:19:37;;;;;;;17.75;10.82;;;7.20;63.70;;;;;;6311634;22;20068;-77
2022/03/30 03:22:04;;;;;;;17.58;10.02;;;7.20;63.80;;;;;;6311218;22;20019;-77
2022/03/30 03:24:29;;;;;;;18.40;10.38;;;7.20;63.90;;;;;;6338841;22;20435;-77
2022/03/30 03:26:55;;;;;;;18.83;10.95;;;7.20;63.90;;;;;;6339129;22;20086;-77
2022/03/30 03:29:21;;;;;;;15.45;10.23;;;7.20;63.90;;;;;;6339396;22;20120;-77
2022/03/30 03:31:47;;;;;;;13.73;9.93;;;7.30;64.00;;;;;;6339415;22;20472;-77
2022/03/30 03:34:13;;;;;;;19.40;11.75;;;7.30;64.00;;;;;;6338535;22;20019;-77
2022/03/30 03:36:39;;;;;;;17.75;10.30;;;7.20;64.00;;;;;;6338934;22;20019;-77
2022/03/30 03:39:04;;;;;;;17.15;10.88;;;7.50;64.20;;;;;;6339243;22;20082;-77
2022/03/30 03:41:30;;;;;;;15.52;10.23;;;7.30;64.10;;;;;;6339184;22;20083;-77
2022/03/30 03:43:55;;;;;;;20.30;10.85;;;7.30;64.20;;;;;;6338953;22;20041;-77
2022/03/30 03:46:21;;;;;;;24.08;11.95;;;7.30;64.20;;;;;;6338895;22;20018;-76
2022/03/30 03:48:47;;;;;;;18.42;10.85;;;7.30;64.20;;;;;;6311673;22;20010;-77
2022/03/30 03:51:12;;;;;;;24.95;12.70;;;7.80;64.50;;;;;;6339570;22;20014;-76
2022/03/30 03:53:38;;;;;;;22.70;12.85;;;7.40;64.30;;;;;;6339984;22;20046;-77
2022/03/30 03:56:05;;;;;;;16.70;11.63;;;7.40;64.40;;;;;;6340491;22;20014;-77
2022/03/30 03:58:30;;;;;;;19.10;11.65;;;7.40;64.40;;;;;;6312746;22;20049;-77
2022/03/30 04:00:56;;;;;;;20.33;11.75;;;7.40;64.40;;;;;;6340855;22;20015;-77
2022/03/30 04:03:22;;;;;;;23.60;11.68;;;7.40;64.60;;;;;;6313129;22;20418;-76
2022/03/30 04:05:47;;;;;;;24.02;13.80;;;7.50;64.80;;;;;;6340795;22;20023;-76
2022/03/30 04:08:15;;;;;;;21.13;13.63;;;7.40;65.00;;;;;;6313130;22;20019;-76
2022/03/30 04:10:41;;;;;;;25.60;13.57;;;7.60;65.20;;;;;;6340732;22;20349;-76
2022/03/30 04:13:07;;;;;;;22.08;12.30;;;7.40;65.20;;;;;;6312987;22;20019;-76
2022/03/30 04:15:37;;;;;;;20.30;11.18;;;7.80;65.50;;;;;;6340810;22;20069;-76
2022/03/30 04:18:04;;;;;;;19.20;12.35;;;7.50;65.40;;;;;;6312364;22;20076;-77
2022/03/30 04:20:31;;;;;;;24.83;13.57;;;7.40;65.20;;;;;;6340507;22;20034;-76
2022/03/30 04:22:57;;;;;;;19.13;11.20;;;7.40;65.40;;;;;;6340660;22;20011;-76
2022/03/30 04:25:23;;;;;;;25.10;12.80;;;7.40;65.40;;;;;;6341041;22;20383;-76
2022/03/30 04:27:50;;;;;;;22.05;12.60;;;7.40;65.50;;;;;;6340888;22;20019;-77
2022/03/30 04:30:18;;;;;;;22.48;12.27;;;7.40;65.50;;;;;;6341124;22;20041;-76
2022/03/30 04:32:44;;;;;;;17.42;11.10;;;7.40;65.60;;;;;;6313370;22;20014;-76
2022/03/30 04:35:11;;;;;;;15.25;9.82;;;7.40;65.50;;;;;;6341690;22;20011;-77
2022/03/30 04:37:38;;;;;;;16.40;10.05;;;7.50;65.40;;;;;;6341493;22;20026;-76
2022/03/30 04:40:04;;;;;;;22.60;12.05;;;7.40;65.30;;;;;;6340833;22;20013;-76
2022/03/30 04:42:30;;;;;;;16.38;11.30;;;7.50;65.40;;;;;;6312636;22;20670;-77
2022/03/30 04:44:55;;;;;;;16.95;10.27;;;7.50;65.60;;;;;;6313015;22;20034;-77
2022/03/30 04:47:21;;;;;;;18.88;10.80;;;7.50;65.50;;;;;;6340191;22;20010;-77
2022/03/30 04:49:47;;;;;;;17.50;11.50;;;7.50;65.50;;;;;;6340567;22;20019;-76
2022/03/30 04:52:13;;;;;;;19.23;11.48;;;7.50;65.60;;;;;;6339758;22;20022;-77
2022/03/30 04:54:39;;;;;;;25.48;13.98;;;7.50;65.70;;;;;;6340003;22;20025;-75
2022/03/30 04:57:04;;;;;;;20.80;12.48;;;8.00;66.30;;;;;;6340336;22;20103;-76
2022/03/30 04:59:30;;;;;;;15.02;10.65;;;7.90;66.30;;;;;;6340020;22;20022;-77
2022/03/30 05:01:56;;;;;;;23.92;12.88;;;7.60;66.10;;;;;;6340037;22;20015;-75
2022/03/30 05:04:22;;;;;;;19.65;12.00;;;7.50;66.00;;;;;;6311909;22;20030;-77
2022/03/30 05:06:48;;;;;;;20.85;11.43;;;7.50;66.30;;;;;;6339698;22;20344;-76
2022/03/30 05:09:13;;;;;;;24.42;12.80;;;7.50;66.30;;;;;;6312471;22;20026;-77
2022/03/30 05:11:39;;;;;;;20.00;11.32;;;7.50;66.40;;;;;;6340157;22;20018;-76
2022/03/30 05:14:06;;;;;;;24.88;12.52;;;7.70;66.70;;;;;;6340125;22;20373;-77
2022/03/30 05:16:33;;;;;;;23.92;11.40;;;7.50;66.70;;;;;;6339344;22;20056;-76
2022/03/30 05:19:02;;;;;;;16.77;9.30;;;7.50;66.90;;;;;;6311998;22;20061;-77
2022/03/30 05:21:29;;;;;;;17.60;9.32;;;7.50;67.40;;;;;;6340047;22;20026;-76
2022/03/30 05:23:55;;;;;;;14.50;8.48;;;7.40;67.60;;;;;;6312383;22;20490;-77
2022/03/30 05:26:20;;;;;;;14.55;8.07;;;7.30;67.70;;;;;;6312706;22;20058;-76
2022/03/30 05:28:46;;;;;;;15.27;7.85;;;7.30;67.90;;;;;;6312294;22;20015;-77
2022/03/30 05:31:12;;;;;;;12.57;7.00;;;7.20;68.00;;;;;;6312314;22;20021;-77
2022/03/30 05:33:37;;;;;;;10.15;5.95;;;7.20;68.20;;;;;;6340138;22;20146;-76
2022/03/30 05:36:04;;;;;;;11.60;5.78;;;7.10;68.20;;;;;;6339746;22;20011;-76
2022/03/30 05:38:30;;;;;;;9.68;5.40;;;7.10;68.30;;;;;;6311641;22;20018;-77
2022/03/30 05:40:56;;;;;;;6.40;3.70;;;7.10;68.30;;;;;;6311979;22;20019;-77
2022/03/30 05:43:22;;;;;;;9.85;4.13;;;7.10;68.40;;;;;;6339396;22;20026;-77
2022/03/30 05:45:48;;;;;;;6.05;3.20;;;7.00;68.50;;;;;;6340516;22;20007;-77
2022/03/30 05:48:15;;;;;;;8.48;3.65;;;7.00;68.40;;;;;;6339134;22;20040;-76
2022/03/30 05:50:41;;;;;;;6.90;3.08;;;7.00;68.40;;;;;;6339777;22;20019;-76
2022/03/30 05:53:06;;;;;;;6.68;2.33;;;6.90;68.40;;;;;;6339785;22;20098;-76
2022/03/30 05:55:33;;;;;;;4.63;1.90;;;6.90;68.50;;;;;;6339268;22;20360;-77
2022/03/30 05:57:59;;;;;;;3.70;2.20;;;6.90;68.40;;;;;;6339043;22;20090;-76
2022/03/30 06:00:24;;;;;;;3.60;1.65;;;6.90;68.50;;;;;;6285698;22;20050;-77
2022/03/30 06:02:50;;;;;;;2.65;1.40;;;6.80;68.50;;;;;;6311206;22;20026;-77
2022/03/30 06:05:16;;;;;;;4.68;1.17;;;6.90;68.50;;;;;;6339411;22;20093;-77
2022/03/30 06:07:42;;;;;;;1.90;0.98;;;7.30;68.80;;;;;;6339635;22;20011;-77
2022/03/30 06:10:08;;;;;;;5.13;1.20;;;7.00;68.70;;;;;;6311969;22;20466;-77
2022/03/30 06:12:34;;;;;;;2.97;0.80;;;6.80;68.40;;;;;;6311917;22;20052;-77
2022/03/30 06:14:59;;;;;;;1.88;0.60;;;6.80;68.40;;;;;;6339858;22;20430;-77
2022/03/30 06:17:27;;;;;;;1.15;0.60;;;6.80;68.40;;;;;;6311052;22;20068;-78
2022/03/30 06:19:53;;;;;;;1.67;0.50;;;6.70;68.20;;;;;;6339381;22;20331;-77
2022/03/30 06:22:20;;;;;;;1.52;0.50;;;6.70;68.40;;;;;;6339574;22;20074;-77
2022/03/30 06:24:47;;;;;;;3.33;1.27;;;6.20;68.20;;;;;;6312009;22;20015;-85
2022/03/30 06:27:12;;;;;;;4.35;1.50;;;6.70;69.00;;;;;;6311489;22;20011;-78
2022/03/30 06:29:39;;;;;;;2.05;0.90;;;7.10;68.80;;;;;;6339411;22;20208;-78
2022/03/30 06:32:06;;;;;;;3.70;1.02;;;7.10;69.00;;;;;;6339127;22;20458;-78
2022/03/30 06:34:32;;;;;;;2.05;0.60;;;6.70;68.80;;;;;;6339299;22;20454;-78
2022/03/30 06:36:58;;;;;;;2.08;0.93;;;7.00;69.00;;;;;;6311305;22;20450;-79
2022/03/30 06:39:24;;;;;;;1.85;0.90;;;7.00;69.10;;;;;;6311573;22;20064;-78
2022/03/30 06:41:50;;;;;;;1.75;0.98;;;6.80;68.90;;;;;;6339684;22;20079;-78
2022/03/30 06:44:16;;;;;;;1.98;0.63;;;6.90;69.00;;;;;;6339465;22;20327;-78
2022/03/30 06:46:42;;;;;;;2.78;0.90;;;7.50;69.10;;;;;;6338968;22;20019;-79
2022/03/30 06:49:10;;;;;;;1.73;0.68;;;7.00;68.60;;;;;;6312054;22;20011;-79
2022/03/30 06:51:36;;;;;;;1.40;0.63;;;7.10;68.90;;;;;;6339355;22;20019;-78
2022/03/30 06:54:02;;;;;;;2.33;0.80;;;7.70;68.60;;;;;;6311820;22;20361;-79
2022/03/30 06:56:28;;;;;;;3.40;0.80;;;7.30;68.20;;;;;;6339404;22;20024;-78
2022/03/30 06:58:54;;;;;;;1.45;0.80;;;7.40;67.70;;;;;;6339592;22;20334;-79
2022/03/30 07:01:20;;;;;;;4.00;0.90;;;7.60;67.70;;;;;;6339932;22;20072;-79
2022/03/30 07:03:46;;;;;;;2.70;0.70;;;7.50;67.30;;;;;;6312309;22;20018;-79
2022/03/30 07:06:11;;;;;;;3.28;0.88;;;7.70;67.20;;;;;;6311661;22;20334;-79
2022/03/30 07:11:22;;;;;;;2.10;0.82;;;7.80;66.80;;;;;;6339158;22;20129;-79
2022/03/30 07:13:48;;;;;;;1.77;0.80;;;7.80;66.50;;;;;;6339717;22;20046;-79
2022/03/30 07:16:14;;;;;;;2.13;0.90;;;7.90;66.50;;;;;;6339616;22;20368;-79
2022/03/30 07:18:40;;;;;;;3.25;0.73;;;8.00;66.40;;;;;;6311188;22;20049;-79
2022/03/30 07:21:05;;;;;;;3.88;1.10;;;8.00;66.30;;;;;;6339613;22;20021;-79
2022/03/30 07:23:31;;;;;;;2.15;1.20;;;8.10;66.00;;;;;;6339541;22;20089;-79
2022/03/30 07:26:00;;;;;;;1.95;0.73;;;8.20;65.50;;;;;;6339401;22;20452;-79
2022/03/30 07:28:26;;;;;;;3.33;1.10;;;8.10;65.20;;;;;;6339454;22;20019;-79
2022/03/30 07:30:53;;;;;;;2.90;0.90;;;8.20;65.10;;;;;;6341341;22;20140;-79
2022/03/30 07:33:20;;;;;;;2.90;1.17;;;8.20;65.10;;;;;;6341258;22;20011;-79
2022/03/30 07:35:46;;;;;;;2.35;0.93;;;8.30;65.40;;;;;;6313506;22;20046;-79
2022/03/30 07:38:16;;;;;;;4.43;1.23;;;8.20;65.90;;;;;;6313678;22;20019;-79
2022/03/30 07:40:45;;;;;;;2.15;1.10;;;8.20;65.60;;;;;;6341221;22;20073;-79
2022/03/30 07:43:12;;;;;;;2.65;1.25;;;8.20;65.10;;;;;;6340852;22;20011;-79
2022/03/30 07:45:38;;;;;;;3.53;1.30;;;8.20;65.10;;;;;;6313489;22;20051;-80
2022/03/30 07:48:05;;;;;;;5.35;1.92;;;8.20;65.10;;;;;;6340809;22;20050;-79
2022/03/30 07:50:32;;;;;;;2.67;1.30;;;8.20;65.10;;;;;;6313148;22;20439;-79
2022/03/30 07:52:57;;;;;;;6.75;1.45;;;8.50;65.00;;;;;;6340919;22;20435;-80
2022/03/30 07:55:24;;;;;;;5.15;1.10;;;8.20;64.50;;;;;;6340944;22;20018;-80
2022/03/30 07:57:50;;;;;;;3.53;1.17;;;8.20;64.20;;;;;;6313397;22;20442;-80
2022/03/30 08:00:17;;;;;;;2.30;1.17;;;8.10;63.70;;;;;;6341099;22;20026;-79
2022/03/30 08:02:44;;;;;;;4.10;1.15;;;8.10;63.60;;;;;;6340202;22;20015;-79
2022/03/30 08:05:12;;;;;;;3.50;1.27;;;8.40;63.60;;;;;;6340551;22;20006;-80
2022/03/30 08:07:39;;;;;;;4.18;1.25;;;8.00;63.70;;;;;;6340876;22;20019;-80
2022/03/30 08:10:08;;;;;;;13.52;2.50;;;8.10;63.80;;;;;;6313106;22;20014;-80
2022/03/30 08:12:35;;;;;;;3.63;1.20;;;7.90;63.70;;;;;;6340806;22;20032;-80
2022/03/30 08:15:00;;;;;;;3.63;1.27;;;7.90;63.90;;;;;;6340576;22;20015;-80
2022/03/30 08:17:29;;;;;;;4.22;1.00;;;7.90;63.90;;;;;;6340565;22;20027;-80
2022/03/30 08:19:57;;;;;;;3.35;1.10;;;7.90;63.30;;;;;;6312489;22;20022;-80
2022/03/30 08:22:26;;;;;;;4.93;1.38;;;8.00;63.10;;;;;;6313764;22;20058;-80
2022/03/30 08:25:11;;;;;;;4.25;1.20;;;8.00;62.20;;;;;;6341002;22;20007;-79
2022/03/30 08:27:37;;;;;;;5.78;1.00;;;8.00;62.00;;;;;;6340936;22;20011;-80
2022/03/30 08:30:05;;;;;;;2.80;0.98;;;8.30;62.50;;;;;;6341162;22;20011;-80
2022/03/30 08:32:31;;;;;;;2.75;0.70;;;8.10;62.20;;;;;;6340679;22;20010;-80
2022/03/30 08:34:57;;;;;;;4.03;1.05;;;8.10;61.50;;;;;;6340775;22;20342;-80
2022/03/30 08:37:24;;;;;;;3.05;0.70;;;8.20;61.70;;;;;;6340337;22;20018;-80
2022/03/30 08:39:51;;;;;;;2.92;0.80;;;8.20;60.50;;;;;;6312921;22;20049;-80
2022/03/30 08:42:17;;;;;;;3.63;0.88;;;8.20;60.60;;;;;;6340378;22;20014;-80
2022/03/30 08:44:46;;;;;;;3.03;1.00;;;8.40;60.60;;;;;;6340463;22;20457;-80
2022/03/30 08:47:13;;;;;;;6.50;1.20;;;8.30;60.20;;;;;;6312300;22;20019;-80
2022/03/30 08:49:39;;;;;;;3.05;1.17;;;8.60;59.90;;;;;;6340523;22;20018;-80
2022/03/30 08:52:07;;;;;;;6.07;1.10;;;8.40;59.90;;;;;;6340255;22;20098;-80
2022/03/30 08:54:33;;;;;;;4.60;1.33;;;8.40;59.70;;;;;;6340210;22;20023;-80
2022/03/30 08:56:59;;;;;;;3.75;1.10;;;8.40;59.20;;;;;;6312221;22;20026;-79
2022/03/30 08:59:25;;;;;;;4.47;1.00;;;8.50;59.30;;;;;;6339925;22;20019;-80
2022/03/30 09:01:54;;;;;;;4.78;1.30;;;8.50;59.20;;;;;;6340391;22;20019;-80
2022/03/30 09:04:21;;;;;;;3.80;1.05;;;8.50;59.00;;;;;;6340516;22;20015;-79
2022/03/30 09:06:53;;;;;;;2.75;1.30;;;8.50;59.00;;;;;;6340159;22;20011;-79
2022/03/30 09:09:38;;;;;;;3.92;1.10;;;8.50;59.30;;;;;;6340484;22;20013;-80
2022/03/30 09:12:09;;;;;;;3.55;1.30;;;8.60;58.90;;;;;;6312508;22;20030;-80
2022/03/30 09:14:39;;;;;;;4.38;1.40;;;8.60;58.50;;;;;;6340262;22;20045;-80
2022/03/30 09:17:07;;;;;;;4.63;1.33;;;8.60;58.40;;;;;;6340749;22;20065;-79
2022/03/30 09:19:38;;;;;;;4.95;1.20;;;8.60;58.30;;;;;;6313094;22;20042;-80
2022/03/30 09:22:06;;;;;;;3.80;1.45;;;8.60;58.40;;;;;;6349012;22;20018;-80
2022/03/30 09:24:35;;;;;;;5.10;1.55;;;8.70;58.20;;;;;;6350277;22;20018;-80
2022/03/30 09:27:03;;;;;;;2.28;0.90;;;8.80;58.20;;;;;;6356144;22;20017;-80
2022/03/30 09:29:32;;;;;;;4.00;0.95;;;8.90;58.10;;;;;;6348515;22;20019;-79
2022/03/30 09:32:09;;;;;;;4.25;1.00;;;9.00;57.30;;;;;;6318781;22;20011;-79
2022/03/30 09:34:45;;;;;;;4.28;1.00;;;9.00;57.70;;;;;;6341641;22;20021;-79
2022/03/30 09:37:11;;;;;;;5.50;1.50;;;9.10;57.00;;;;;;6340395;22;20080;-79
2022/03/30 09:39:38;;;;;;;5.32;1.00;;;9.10;56.90;;;;;;6312265;22;20346;-79
2022/03/30 09:42:07;;;;;;;3.88;1.15;;;9.40;56.40;;;;;;6312229;22;20019;-79
2022/03/30 09:44:45;;;;;;;8.70;1.50;;;9.10;56.30;;;;;;6312433;22;20484;-79
2022/03/30 09:47:11;;;;;;;3.22;1.10;;;9.60;56.90;;;;;;6339858;22;20021;-79
2022/03/30 09:49:46;;;;;;;3.78;1.42;;;9.20;56.80;;;;;;6339937;22;20015;-79
2022/03/30 09:52:21;;;;;;;3.60;0.82;;;9.30;56.60;;;;;;6339209;22;20052;-79
2022/03/30 09:54:53;;;;;;;3.08;1.02;;;9.30;56.00;;;;;;6339819;22;20019;-79
2022/03/30 09:57:41;;;;;;;4.68;1.00;;;9.40;56.30;;;;;;6311644;22;20021;-79
2022/03/30 10:00:08;;;;;;;4.45;0.80;;;9.50;56.10;;;;;;6339557;22;20454;-79
2022/03/30 10:02:40;;;;;;;2.22;1.00;;;9.50;56.00;;;;;;6339789;22;20364;-79
2022/03/30 10:05:09;;;;;;;5.05;1.10;;;9.50;56.30;;;;;;6339809;22;20385;-79
2022/03/30 10:07:34;;;;;;;4.68;1.15;;;9.60;55.80;;;;;;6340192;22;20037;-80
2022/03/30 10:10:01;;;;;;;3.38;0.82;;;9.70;55.80;;;;;;6339545;22;20430;-79
2022/03/30 10:12:28;;;;;;;4.15;1.13;;;9.80;55.90;;;;;;6339606;22;20065;-79
2022/03/30 10:14:55;;;;;;;6.05;1.08;;;9.50;55.70;;;;;;6339243;22;20064;-79
2022/03/30 10:17:23;;;;;;;4.07;1.05;;;10.00;55.90;;;;;;6311798;22;20060;-79
2022/03/30 10:19:49;;;;;;;3.47;1.13;;;9.60;56.10;;;;;;6340049;22;20085;-80
2022/03/30 10:22:45;;;;;;;3.38;1.08;;;9.50;56.40;;;;;;6311956;22;20033;-79
2022/03/30 10:25:48;;;;;;;3.90;1.08;;;9.50;56.50;;;;;;6340011;22;20017;-80
2022/03/30 10:28:29;;;;;;;5.05;1.20;;;9.40;56.50;;;;;;6339934;22;20015;-79
2022/03/30 10:30:57;;;;;;;6.32;1.77;;;9.40;56.70;;;;;;6340012;22;20076;-80
2022/03/30 10:33:36;;;;;;;4.05;0.77;;;9.50;56.70;;;;;;6312196;22;20418;-81
2022/03/30 10:36:22;;;;;;;3.38;0.90;;;9.30;56.20;;;;;;6311609;22;20023;-80
2022/03/30 10:39:17;;;;;;;3.55;1.13;;;9.30;55.60;;;;;;6339167;22;20481;-80
2022/03/30 10:41:54;;;;;;;4.22;0.60;;;9.30;55.40;;;;;;6327834;22;20025;-81
2022/03/30 10:44:45;;;;;;;3.90;0.85;;;9.30;55.60;;;;;;6339059;22;20017;-80
2022/03/30 10:47:25;;;;;;;6.63;0.80;;;9.30;55.10;;;;;;6311571;22;20015;-81
2022/03/30 10:49:57;;;;;;;2.05;0.65;;;9.30;54.60;;;;;;6339619;22;20022;-80
2022/03/30 10:52:42;;;;;;;6.10;1.10;;;9.30;54.70;;;;;;6311511;22;20029;-81
2022/03/30 10:55:14;;;;;;;4.30;1.25;;;9.40;54.50;;;;;;6339499;22;20042;-81
2022/03/30 10:57:43;;;;;;;3.10;1.25;;;9.30;54.60;;;;;;6311734;22;20050;-80
2022/03/30 11:00:18;;;;;;;3.40;1.00;;;9.90;55.00;;;;;;6339507;22;20307;-81
2022/03/30 11:02:45;;;;;;;5.22;1.15;;;9.50;54.70;;;;;;6311659;22;20432;-80
2022/03/30 11:05:15;;;;;;;3.38;0.80;;;9.50;54.20;;;;;;6341244;22;20021;-81
2022/03/30 11:07:42;;;;;;;2.45;0.80;;;10.10;54.10;;;;;;6340965;22;20498;-81
2022/03/30 11:10:29;;;;;;;3.65;1.10;;;10.00;54.50;;;;;;6341495;22;20018;-80
2022/03/30 11:13:11;;;;;;;2.10;0.75;;;9.60;54.10;;;;;;6313809;22;20022;-80
2022/03/30 11:16:07;;;;;;;4.35;0.77;;;9.50;53.90;;;;;;6341395;22;20044;-81
2022/03/30 11:18:33;;;;;;;3.20;1.25;;;9.50;54.30;;;;;;6313454;22;20025;-81
2022/03/30 11:21:20;;;;;;;3.08;0.68;;;9.50;54.30;;;;;;6313642;22;20434;-82
2022/03/30 11:24:04;;;;;;;3.67;0.80;;;9.50;54.30;;;;;;6313636;22;20014;-81
2022/03/30 11:26:48;;;;;;;2.67;1.23;;;9.50;54.30;;;;;;6313825;22;20022;-81
2022/03/30 11:29:47;;;;;;;2.15;0.77;;;9.50;54.00;;;;;;6341039;22;20093;-81
2022/03/30 11:32:18;;;;;;;2.83;0.90;;;9.40;53.60;;;;;;6313518;22;20018;-81
2022/03/30 11:34:45;;;;;;;4.47;1.17;;;9.40;54.10;;;;;;6340774;22;20018;-81
2022/03/30 11:37:12;;;;;;;4.03;1.00;;;9.40;53.80;;;;;;6313618;22;20023;-81
2022/03/30 11:39:39;;;;;;;2.72;1.00;;;9.70;53.80;;;;;;6340841;22;20345;-81
2022/03/30 11:42:05;;;;;;;4.95;1.02;;;10.00;53.60;;;;;;6341399;22;20015;-79
2022/03/30 11:47:19;;;;;;;3.83;0.80;;;9.90;53.90;;;;;;6340995;22;20045;-80
2022/03/30 11:49:51;;;;;;;5.60;1.63;;;9.70;53.40;;;;;;6340896;22;20033;-79
2022/03/30 11:52:18;;;;;;;2.30;0.75;;;9.70;53.30;;;;;;6340674;22;20010;-79
2022/03/30 11:54:48;;;;;;;2.58;0.80;;;9.70;52.60;;;;;;6341221;22;20014;-79
2022/03/30 11:57:15;;;;;;;2.45;1.08;;;9.70;52.50;;;;;;6313314;22;20026;-80
2022/03/30 11:59:41;;;;;;;5.68;1.20;;;10.00;53.10;;;;;;6313311;22;20063;-81
2022/03/30 12:02:08;;;;;;;3.47;0.75;;;10.10;53.20;;;;;;6340613;22;20365;-80
2022/03/30 12:04:34;;;;;;;2.83;0.80;;;10.00;52.90;;;;;;6312514;22;20014;-80
2022/03/30 12:07:01;;;;;;;5.57;1.23;;;10.20;53.10;;;;;;6340942;22;20011;-80
2022/03/30 12:09:26;;;;;;;3.28;0.82;;;9.50;52.90;;;;;;6341171;22;20018;-80
2022/03/30 12:11:52;;;;;;;3.22;0.70;;;9.50;52.70;;;;;;6341046;22;20018;-80
2022/03/30 12:14:25;;;;;;;3.60;0.82;;;9.70;52.60;;;;;;6340578;22;20014;-80
2022/03/30 12:16:51;;;;;;;2.63;1.00;;;9.50;52.40;;;;;;6340710;22;20094;-80
2022/03/30 12:19:19;;;;;;;5.85;1.15;;;9.50;52.40;;;;;;6341161;22;20095;-79
2022/03/30 12:21:45;;;;;;;1.73;0.70;;;9.90;51.80;;;;;;6340855;22;20089;-80
2022/03/30 12:24:11;;;;;;;1.17;0.70;;;9.50;51.20;;;;;;6313062;22;20015;-80
2022/03/30 12:26:38;;;;;;;4.40;1.00;;;9.80;51.30;;;;;;6312856;22;20021;-80
2022/03/30 12:29:09;;;;;;;3.35;1.00;;;9.50;51.20;;;;;;6340876;22;20057;-80
2022/03/30 12:31:36;;;;;;;2.63;0.90;;;9.50;51.50;;;;;;6340863;22;20019;-80
2022/03/30 12:34:13;;;;;;;2.80;0.85;;;9.50;51.20;;;;;;6340487;22;20040;-80
2022/03/30 12:36:53;;;;;;;2.35;0.82;;;9.90;51.30;;;;;;6312729;22;20068;-80
2022/03/30 12:39:28;;;;;;;4.18;1.00;;;9.50;51.20;;;;;;6340287;22;20019;-80
2022/03/30 12:41:58;;;;;;;3.15;1.02;;;9.50;51.30;;;;;;6340760;22;20034;-81
2022/03/30 12:44:27;;;;;;;2.22;0.90;;;9.50;51.50;;;;;;6340164;22;20068;-79
2022/03/30 12:46:55;;;;;;;3.10;1.08;;;9.50;51.60;;;;;;6340187;22;20019;-80
2022/03/30 12:49:34;;;;;;;2.78;1.17;;;9.50;51.50;;;;;;6340845;22;20017;-80
2022/03/30 12:52:12;;;;;;;3.50;1.30;;;9.80;51.40;;;;;;6312730;22;20019;-80
2022/03/30 12:54:40;;;;;;;5.30;2.15;;;9.60;51.50;;;;;;6340525;22;20094;-80
2022/03/30 12:57:06;;;;;;;4.45;1.15;;;10.10;51.90;;;;;;6340211;22;20019;-80
2022/03/30 12:59:31;;;;;;;2.50;1.35;;;10.00;51.50;;;;;;6340196;22;20045;-80
2022/03/30 13:01:58;;;;;;;3.25;1.10;;;9.70;51.20;;;;;;6340324;22;20022;-80
2022/03/30 13:04:30;;;;;;;2.70;1.00;;;9.70;51.20;;;;;;6338904;22;20029;-80
2022/03/30 13:07:13;;;;;;;4.20;0.90;;;9.70;50.90;;;;;;6312336;22;20068;-80